Time;durP1;ratioP1;P1;durP2;ratioP2;P2;SDS_P1;SDS_P2;PMS_P1;PMS_P2;Temp;Humidity;BMP_temperature;BMP_pressure;BME280_temperature;BME280_humidity;BME280_pressure;Samples;Min_cycle;Max_cycle;Signal;HPM_P1;HPM_P2
2022/09/23 00:01:36;;;;;;;11.82;6.87;;;;;;;7.87;100.00;100790.91;5571138;32;34224;-67
2022/09/23 00:04:40;;;;;;;10.00;6.12;;;;;;;7.94;100.00;100795.63;5571057;32;34602;-67
2022/09/23 00:07:43;;;;;;;12.13;6.50;;;;;;;8.07;100.00;100799.66;5571025;32;33887;-67
2022/09/23 00:10:46;;;;;;;9.75;6.57;;;;;;;7.90;100.00;100792.41;5571057;32;33986;-67
2022/09/23 00:13:51;;;;;;;9.73;6.03;;;;;;;7.96;100.00;100798.94;5571145;32;34192;-67
2022/09/23 00:16:54;;;;;;;8.60;5.95;;;;;;;7.84;100.00;100787.72;5570932;32;34058;-66
2022/09/23 00:19:57;;;;;;;8.45;6.05;;;;;;;7.77;100.00;100791.88;5570894;32;33980;-67
2022/09/23 00:23:00;;;;;;;8.02;5.70;;;;;;;7.84;100.00;100795.66;5570921;32;35226;-68
2022/09/23 00:26:05;;;;;;;9.13;6.18;;;;;;;7.86;100.00;100788.41;5570874;32;34730;-68
2022/09/23 00:29:07;;;;;;;9.93;6.28;;;;;;;7.83;100.00;100792.16;5570805;32;34605;-67
2022/09/23 00:32:10;;;;;;;9.32;6.20;;;;;;;7.78;100.00;100791.75;5570836;32;34902;-68
2022/09/23 00:35:13;;;;;;;8.00;6.12;;;;;;;7.76;100.00;100785.75;5570853;32;34636;-67
2022/09/23 00:38:16;;;;;;;9.70;5.97;;;;;;;7.58;100.00;100791.88;5570834;32;34046;-67
2022/09/23 00:41:20;;;;;;;8.23;6.25;;;;;;;7.44;100.00;100787.84;5570597;32;34281;-67
2022/09/23 00:44:47;;;;;;;8.60;6.47;;;;;;;7.29;100.00;100782.13;5570721;32;33927;-67
2022/09/23 00:47:53;;;;;;;9.65;6.35;;;;;;;7.31;100.00;100777.53;5570801;32;33998;-67
2022/09/23 00:50:56;;;;;;;10.35;6.60;;;;;;;7.36;100.00;100777.13;5570711;32;34400;-67
2022/09/23 00:54:01;;;;;;;9.75;6.37;;;;;;;7.29;100.00;100781.31;5570624;32;33857;-67
2022/09/23 00:57:04;;;;;;;10.57;6.68;;;;;;;7.26;100.00;100776.31;5570651;32;34026;-67
2022/09/23 01:00:08;;;;;;;10.60;7.15;;;;;;;7.23;100.00;100777.41;5570507;32;34663;-67
2022/09/23 01:03:10;;;;;;;11.23;7.05;;;;;;;7.19;100.00;100773.38;5570461;32;34204;-67
2022/09/23 01:06:13;;;;;;;10.30;6.65;;;;;;;7.17;100.00;100777.09;5570564;32;34592;-67
2022/09/23 01:09:17;;;;;;;9.45;6.22;;;;;;;7.10;100.00;100776.81;5570486;32;33919;-66
2022/09/23 01:12:20;;;;;;;9.50;6.37;;;;;;;7.06;100.00;100779.87;5570718;32;34474;-67
2022/09/23 01:15:38;;;;;;;9.68;6.45;;;;;;;7.03;100.00;100780.13;5570806;32;34525;-67
2022/09/23 01:18:49;;;;;;;10.35;6.85;;;;;;;6.99;100.00;100784.84;5570414;32;33902;-67
2022/09/23 01:21:55;;;;;;;10.32;7.32;;;;;;;7.04;100.00;100773.88;5570683;32;34647;-67
2022/09/23 01:25:10;;;;;;;13.43;6.80;;;;;;;6.94;100.00;100779.13;5570330;32;34335;-67
2022/09/23 01:28:39;;;;;;;12.50;6.85;;;;;;;6.84;100.00;100784.38;5570169;32;33941;-68
2022/09/23 01:31:56;;;;;;;8.57;6.60;;;;;;;6.72;100.00;100777.56;5570615;32;33943;-68
2022/09/23 01:35:14;;;;;;;9.38;6.93;;;;;;;6.68;100.00;100772.69;5570520;32;34427;-67
2022/09/23 01:38:39;;;;;;;10.57;7.22;;;;;;;6.58;100.00;100785.81;5570263;32;34532;-67
2022/09/23 01:42:08;;;;;;;10.73;7.07;;;;;;;6.46;100.00;100781.59;5570175;32;34334;-67
2022/09/23 01:45:18;;;;;;;9.57;6.62;;;;;;;6.34;100.00;100780.03;5556554;32;32500;-67
2022/09/23 01:48:41;;;;;;;10.33;6.70;;;;;;;6.48;100.00;100783.16;5556433;32;32522;-67
2022/09/23 01:51:49;;;;;;;10.13;6.62;;;;;;;6.66;100.00;100775.44;5570248;32;33867;-67
2022/09/23 01:55:01;;;;;;;14.15;7.40;;;;;;;6.53;100.00;100775.66;5569445;32;33986;-67
2022/09/23 01:58:13;;;;;;;10.13;6.78;;;;;;;6.47;100.00;100775.38;5570050;32;34564;-67
2022/09/23 02:01:22;;;;;;;9.73;6.55;;;;;;;6.36;100.00;100771.00;5570026;32;33922;-67
2022/09/23 02:04:46;;;;;;;9.07;6.78;;;;;;;6.25;100.00;100770.25;5570015;32;33997;-67
2022/09/23 02:07:56;;;;;;;9.18;6.82;;;;;;;6.19;100.00;100770.78;5569910;32;34180;-67
2022/09/23 02:11:05;;;;;;;9.75;6.95;;;;;;;6.26;100.00;100771.91;5569989;32;35299;-67
2022/09/23 02:14:34;;;;;;;9.52;7.47;;;;;;;6.52;100.00;100768.72;5569949;32;34052;-67
2022/09/23 02:17:48;;;;;;;11.43;6.90;;;;;;;6.53;100.00;100765.09;5570083;32;34675;-67
2022/09/23 02:20:58;;;;;;;11.27;6.70;;;;;;;6.51;100.00;100764.44;5569906;32;34062;-67
2022/09/23 02:24:18;;;;;;;10.63;7.12;;;;;;;6.29;100.00;100767.25;5569952;32;34663;-67
2022/09/23 02:27:30;;;;;;;10.25;7.05;;;;;;;6.29;100.00;100763.78;5570446;32;33869;-66
2022/09/23 02:30:44;;;;;;;9.00;6.72;;;;;;;6.33;100.00;100768.66;5569783;32;33900;-66
2022/09/23 02:34:08;;;;;;;11.55;7.35;;;;;;;6.40;100.00;100767.12;5569678;32;34102;-67
2022/09/23 02:37:26;;;;;;;9.82;6.93;;;;;;;6.37;100.00;100763.94;5569732;32;33930;-67
2022/09/23 02:40:39;;;;;;;9.57;6.75;;;;;;;6.34;100.00;100765.03;5569507;32;34829;-67
2022/09/23 02:43:50;;;;;;;13.73;7.53;;;;;;;6.31;100.00;100760.03;5569661;32;33938;-67
2022/09/23 02:46:53;;;;;;;10.57;6.95;;;;;;;6.25;100.00;100765.81;5569523;32;34118;-67
2022/09/23 02:49:56;;;;;;;13.50;7.20;;;;;;;6.17;100.00;100762.16;5569426;32;34616;-67
2022/09/23 02:52:59;;;;;;;11.85;7.25;;;;;;;6.16;100.00;100768.38;5569380;32;33995;-67
2022/09/23 02:56:14;;;;;;;11.10;7.60;;;;;;;6.01;100.00;100767.88;5569309;32;34082;-67
2022/09/23 02:59:19;;;;;;;10.00;7.40;;;;;;;6.04;100.00;100775.53;5569279;32;33948;-67
2022/09/23 03:02:48;;;;;;;9.43;6.78;;;;;;;6.02;100.00;100773.03;5569220;32;34185;-67
2022/09/23 03:05:57;;;;;;;10.18;7.05;;;;;;;5.87;100.00;100771.69;5570567;32;34102;-67
2022/09/23 03:09:26;;;;;;;13.57;7.40;;;;;;;6.07;100.00;100768.22;5558396;32;34646;-67
2022/09/23 03:12:59;;;;;;;9.82;7.07;;;;;;;6.24;100.00;100766.78;5571680;32;34203;-67
2022/09/23 03:16:21;;;;;;;10.38;7.15;;;;;;;6.02;100.00;100773.03;5571648;32;34000;-67
2022/09/23 03:19:36;;;;;;;14.25;7.97;;;;;;;5.82;100.00;100762.47;5571411;32;33972;-67
2022/09/23 03:22:45;;;;;;;9.82;6.85;;;;;;;5.85;100.00;100764.84;5571324;32;33988;-67
2022/09/23 03:25:52;;;;;;;11.55;6.85;;;;;;;6.03;100.00;100768.59;5571386;32;34187;-67
2022/09/23 03:28:57;;;;;;;11.05;7.57;;;;;;;6.03;100.00;100771.25;5571240;32;34024;-67
2022/09/23 03:32:00;;;;;;;10.98;6.65;;;;;;;5.95;100.00;100766.63;5571637;32;33881;-67
2022/09/23 03:35:04;;;;;;;11.57;7.57;;;;;;;5.99;100.00;100765.41;5571221;32;35127;-67
2022/09/23 03:38:16;;;;;;;11.93;7.60;;;;;;;5.86;100.00;100774.41;5571236;32;33867;-67
2022/09/23 03:41:27;;;;;;;10.60;7.00;;;;;;;5.77;100.00;100773.38;5571197;32;33861;-67
2022/09/23 03:44:38;;;;;;;11.27;7.30;;;;;;;5.68;100.00;100774.97;5571480;32;34233;-67
2022/09/23 03:47:41;;;;;;;8.75;7.05;;;;;;;5.68;100.00;100777.59;5571235;32;34047;-67
2022/09/23 03:50:45;;;;;;;9.20;6.80;;;;;;;5.61;100.00;100768.56;5571204;32;33950;-67
2022/09/23 03:53:48;;;;;;;10.85;7.07;;;;;;;5.58;100.00;100771.44;5571302;32;33922;-67
2022/09/23 03:56:50;;;;;;;9.98;6.53;;;;;;;5.63;100.00;100763.16;5571140;32;34566;-67
2022/09/23 03:59:53;;;;;;;10.15;6.97;;;;;;;5.72;100.00;100772.06;5571444;32;34370;-67
2022/09/23 04:02:56;;;;;;;11.30;7.00;;;;;;;5.62;100.00;100762.31;5571161;32;35251;-67
2022/09/23 04:05:59;;;;;;;10.32;6.80;;;;;;;5.58;100.00;100770.59;5571066;32;33848;-67
2022/09/23 04:09:02;;;;;;;10.77;7.07;;;;;;;5.47;100.00;100778.56;5571316;32;34613;-67
2022/09/23 04:12:05;;;;;;;9.73;7.05;;;;;;;5.51;100.00;100770.28;5571200;32;33955;-66
2022/09/23 04:15:08;;;;;;;10.80;7.20;;;;;;;5.44;100.00;100770.88;5571200;32;34732;-66
2022/09/23 04:18:11;;;;;;;11.48;7.70;;;;;;;5.39;100.00;100775.69;5570676;32;33995;-66
2022/09/23 04:21:14;;;;;;;9.20;7.47;;;;;;;5.32;100.00;100779.78;5570813;32;34591;-66
2022/09/23 04:24:17;;;;;;;9.75;7.72;;;;;;;5.25;100.00;100780.28;5571177;32;34539;-66
2022/09/23 04:27:20;;;;;;;12.02;7.68;;;;;;;5.30;100.00;100773.81;5570829;32;33932;-67
2022/09/23 04:30:22;;;;;;;8.68;7.10;;;;;;;5.38;100.00;100769.59;5571090;32;34638;-66
2022/09/23 04:33:25;;;;;;;11.20;7.62;;;;;;;5.50;100.00;100780.91;5570520;32;34692;-67
2022/09/23 04:36:29;;;;;;;10.95;7.40;;;;;;;5.37;100.00;100783.72;5570719;32;35277;-67
2022/09/23 04:39:31;;;;;;;9.95;7.18;;;;;;;5.28;100.00;100778.38;5571052;32;34118;-67
2022/09/23 04:42:34;;;;;;;12.90;7.78;;;;;;;5.23;100.00;100782.19;5570713;32;33955;-67
2022/09/23 04:45:36;;;;;;;14.18;7.50;;;;;;;5.20;100.00;100781.59;5557016;32;34281;-67
2022/09/23 04:48:42;;;;;;;10.48;7.80;;;;;;;5.18;100.00;100792.25;5570403;32;34072;-67
2022/09/23 04:51:45;;;;;;;16.12;7.80;;;;;;;5.20;100.00;100777.19;5570487;32;34005;-67
2022/09/23 04:54:48;;;;;;;12.95;7.70;;;;;;;5.21;100.00;100781.50;5556703;32;34042;-67
2022/09/23 04:57:52;;;;;;;10.48;7.10;;;;;;;5.25;100.00;100792.59;5570921;32;33946;-67
2022/09/23 05:00:56;;;;;;;13.90;7.70;;;;;;;5.27;100.00;100792.47;5570734;32;34645;-68
2022/09/23 05:04:09;;;;;;;10.25;7.78;;;;;;;5.33;100.00;100787.53;5570340;32;33968;-69
2022/09/23 05:07:12;;;;;;;9.88;7.50;;;;;;;5.36;100.00;100794.38;5570376;32;33941;-67
2022/09/23 05:10:16;;;;;;;13.85;7.55;;;;;;;5.44;100.00;100799.84;5556581;32;33959;-68
2022/09/23 05:13:19;;;;;;;12.20;7.78;;;;;;;5.47;100.00;100797.78;5556406;32;33340;-67
2022/09/23 05:16:23;;;;;;;12.98;7.68;;;;;;;5.64;100.00;100797.25;5570049;32;34743;-67
2022/09/23 05:19:26;;;;;;;9.60;6.82;;;;;;;5.96;100.00;100799.87;5569847;32;34698;-67
2022/09/23 05:22:29;;;;;;;15.30;7.53;;;;;;;6.16;100.00;100803.47;5570255;32;33989;-67
2022/09/23 05:25:32;;;;;;;13.32;7.40;;;;;;;6.17;100.00;100806.94;5570080;32;35149;-67
2022/09/23 05:28:39;;;;;;;10.75;7.15;;;;;;;6.25;100.00;100815.03;5568791;32;34143;-67
2022/09/23 05:31:42;;;;;;;11.80;7.50;;;;;;;6.28;100.00;100813.00;5570170;32;34839;-67
2022/09/23 05:34:45;;;;;;;9.77;6.62;;;;;;;6.37;100.00;100825.38;5570102;32;34010;-67
2022/09/23 05:37:48;;;;;;;13.13;6.78;;;;;;;6.41;100.00;100818.03;5570027;32;33974;-67
2022/09/23 05:40:58;;;;;;;9.55;7.00;;;;;;;6.48;100.00;100812.12;5569702;32;34229;-67
2022/09/23 05:44:02;;;;;;;10.55;7.20;;;;;;;6.63;100.00;100819.69;5569887;32;33993;-67
2022/09/23 05:47:05;;;;;;;16.58;7.53;;;;;;;6.71;100.00;100825.97;5555906;32;32980;-67
2022/09/23 05:50:08;;;;;;;13.13;7.65;;;;;;;6.75;100.00;100824.75;5569765;32;34079;-68
2022/09/23 05:53:11;;;;;;;11.65;7.30;;;;;;;6.86;100.00;100822.03;5569607;32;34001;-67
2022/09/23 05:56:16;;;;;;;11.38;7.37;;;;;;;6.99;100.00;100817.34;5569374;32;34393;-67
2022/09/23 05:59:19;;;;;;;12.25;7.53;;;;;;;7.14;100.00;100823.06;5568923;32;34001;-67
2022/09/23 06:02:22;;;;;;;10.98;6.53;;;;;;;7.24;100.00;100825.72;5569038;32;35248;-67
2022/09/23 06:05:25;;;;;;;10.80;6.82;;;;;;;7.32;100.00;100820.59;5569927;32;34437;-68
2022/09/23 06:08:27;;;;;;;11.45;6.40;;;;;;;7.49;100.00;100825.22;5569691;32;33934;-67
2022/09/23 06:11:33;;;;;;;9.70;6.60;;;;;;;7.57;100.00;100822.72;5569558;32;33967;-67
2022/09/23 06:14:35;;;;;;;9.07;6.43;;;;;;;7.61;100.00;100815.34;5569187;32;34031;-68
2022/09/23 06:17:38;;;;;;;10.60;7.10;;;;;;;7.62;100.00;100819.66;5569325;32;34221;-68
2022/09/23 06:20:41;;;;;;;12.27;6.53;;;;;;;7.72;100.00;100829.28;5569489;32;34529;-68
2022/09/23 06:23:44;;;;;;;14.00;7.32;;;;;;;7.81;100.00;100825.78;5569301;32;33895;-67
2022/09/23 06:26:47;;;;;;;11.82;6.80;;;;;;;8.05;100.00;100832.47;5569553;32;33831;-67
2022/09/23 06:29:51;;;;;;;9.73;6.68;;;;;;;8.14;100.00;100835.09;5569652;32;34780;-67
2022/09/23 06:32:56;;;;;;;12.05;7.37;;;;;;;8.16;100.00;100827.88;5569120;31;33806;-68
2022/09/23 06:36:00;;;;;;;11.02;6.78;;;;;;;8.26;100.00;100839.25;5569030;32;34633;-68
2022/09/23 06:39:03;;;;;;;13.52;6.70;;;;;;;8.65;100.00;100833.91;5568962;32;33942;-68
2022/09/23 06:42:06;;;;;;;10.77;6.62;;;;;;;9.19;99.14;100845.53;5555234;32;34684;-67
2022/09/23 06:45:11;;;;;;;8.27;6.20;;;;;;;9.99;94.79;100840.19;5568918;32;33934;-68
2022/09/23 06:48:14;;;;;;;9.43;6.53;;;;;;;9.87;93.86;100844.09;5555308;32;34258;-68
2022/09/23 06:51:20;;;;;;;9.38;5.97;;;;;;;9.59;95.51;100846.78;5569091;32;33921;-68
2022/09/23 06:54:24;;;;;;;10.85;5.95;;;;;;;9.74;95.58;100846.25;5568994;32;34602;-67
2022/09/23 06:57:31;;;;;;;9.00;5.80;;;;;;;9.90;95.38;100849.06;5555446;32;34563;-67
2022/09/23 07:00:35;;;;;;;8.38;6.43;;;;;;;9.94;96.54;100848.62;5568934;32;34716;-67
2022/09/23 07:03:37;;;;;;;13.43;6.37;;;;;;;10.28;94.63;100839.97;5568975;32;34083;-68
2022/09/23 07:06:40;;;;;;;8.63;6.18;;;;;;;10.48;94.30;100837.94;5568649;32;34245;-67
2022/09/23 07:09:44;;;;;;;8.80;5.72;;;;;;;10.75;92.57;100843.09;5568840;32;34593;-68
2022/09/23 07:12:47;;;;;;;11.02;5.70;;;;;;;10.84;92.18;100845.62;5568963;32;33890;-68
2022/09/23 07:16:00;;;;;;;12.55;6.10;;;;;;;10.95;91.11;100841.03;5555256;32;34008;-68
2022/09/23 07:19:04;;;;;;;8.73;5.03;;;;;;;11.91;86.90;100845.81;5568770;32;34174;-68
2022/09/23 07:22:06;;;;;;;9.20;5.28;;;;;;;12.51;80.30;100858.78;5568777;32;33955;-68
2022/09/23 07:25:11;;;;;;;7.75;4.32;;;;;;;14.30;75.66;100855.06;5568691;32;34927;-68
2022/09/23 07:28:13;;;;;;;6.68;3.85;;;;;;;16.02;67.17;100852.84;5568655;32;34011;-68
2022/09/23 07:31:17;;;;;;;5.53;3.85;;;;;;;17.04;60.45;100848.66;5554766;32;32954;-68
2022/09/23 07:34:36;;;;;;;10.45;3.85;;;;;;;17.46;57.96;100858.34;5568261;32;33982;-68
2022/09/23 07:37:38;;;;;;;7.07;3.90;;;;;;;18.56;56.31;100852.56;5542056;32;34566;-69
2022/09/23 07:40:41;;;;;;;5.53;3.60;;;;;;;16.57;59.09;100853.91;5568521;32;34438;-69
2022/09/23 07:43:45;;;;;;;6.65;4.07;;;;;;;16.44;59.04;100860.81;5568343;32;34009;-69
2022/09/23 07:46:49;;;;;;;9.57;3.60;;;;;;;16.82;57.90;100852.47;5568122;32;34070;-68
2022/09/23 07:49:53;;;;;;;7.00;3.45;;;;;;;19.37;52.88;100858.34;5567968;32;35438;-69
2022/09/23 07:52:55;;;;;;;11.32;3.28;;;;;;;20.28;48.99;100853.50;5570391;32;34613;-69
2022/09/23 07:55:58;;;;;;;9.35;2.65;;;;;;;21.32;45.02;100855.38;5557434;32;34723;-69
2022/09/23 07:59:04;;;;;;;4.72;3.10;;;;;;;20.58;47.36;100853.66;5570609;32;34007;-69
2022/09/23 08:02:08;;;;;;;7.18;3.40;;;;;;;20.67;45.75;100855.03;5571045;32;33986;-69
2022/09/23 08:05:11;;;;;;;5.35;2.72;;;;;;;19.76;47.98;100857.34;5570724;32;34553;-69
2022/09/23 08:08:14;;;;;;;3.67;2.97;;;;;;;21.75;43.57;100858.75;5570728;32;33958;-70
2022/09/23 08:11:18;;;;;;;4.62;3.28;;;;;;;23.67;40.58;100857.03;5555946;32;32535;-69
2022/09/23 08:14:23;;;;;;;5.15;2.50;;;;;;;23.20;40.04;100853.59;5556876;32;32870;-69
2022/09/23 08:17:26;;;;;;;3.33;2.28;;;;;;;24.80;36.62;100864.09;5570982;32;34393;-69
2022/09/23 08:20:44;;;;;;;5.18;2.47;;;;;;;24.58;35.23;100854.03;5570538;32;34136;-69
2022/09/23 08:23:50;;;;;;;7.07;2.85;;;;;;;24.87;36.92;100854.75;5570698;32;33991;-69
2022/09/23 08:26:54;;;;;;;7.07;2.50;;;;;;;23.95;35.90;100850.78;5557104;32;32351;-69
2022/09/23 08:29:57;;;;;;;5.65;2.40;;;;;;;25.45;34.71;100845.97;5570600;32;34618;-69
2022/09/23 08:32:59;;;;;;;23.58;3.58;;;;;;;26.72;32.18;100853.38;5543939;31;33589;-69
2022/09/23 08:36:02;;;;;;;3.78;2.60;;;;;;;24.99;35.08;100841.03;5570467;32;34610;-68
2022/09/23 08:39:05;;;;;;;4.20;2.47;;;;;;;25.47;32.53;100846.53;5556263;32;32650;-69
2022/09/23 08:42:26;;;;;;;4.37;2.72;;;;;;;25.30;33.31;100844.97;5570019;32;35275;-70
2022/09/23 08:45:29;;;;;;;3.95;3.28;;;;;;;24.23;35.33;100839.91;5556930;32;34155;-69
2022/09/23 08:48:51;;;;;;;3.72;2.67;;;;;;;21.06;41.89;100840.28;5570227;32;33959;-70
2022/09/23 08:51:54;;;;;;;4.50;2.78;;;;;;;18.46;48.07;100836.00;5570095;32;34446;-69
2022/09/23 08:55:00;;;;;;;5.47;2.92;;;;;;;17.00;53.28;100831.31;5570700;32;34005;-69
2022/09/23 08:58:34;;;;;;;6.10;3.08;;;;;;;16.71;53.76;100829.72;5556667;32;34649;-69
2022/09/23 09:01:43;;;;;;;4.28;3.22;;;;;;;15.82;59.02;100823.22;5570621;32;34564;-68
2022/09/23 09:04:56;;;;;;;9.63;3.30;;;;;;;15.29;60.62;100826.31;5556334;32;33269;-69
2022/09/23 09:08:02;;;;;;;3.95;3.30;;;;;;;15.18;63.02;100817.75;5569507;32;34556;-69
2022/09/23 09:11:05;;;;;;;7.37;3.85;;;;;;;15.12;63.46;100823.81;5570221;32;34382;-68
2022/09/23 09:14:28;;;;;;;6.47;3.60;;;;;;;15.18;63.33;100822.25;5556124;32;32618;-68
2022/09/23 09:17:37;;;;;;;5.65;3.78;;;;;;;15.13;62.20;100822.81;5570064;32;34713;-68
2022/09/23 09:21:07;;;;;;;7.93;4.05;;;;;;;14.94;62.98;100817.22;5570049;32;34617;-68
2022/09/23 09:24:32;;;;;;;5.28;3.83;;;;;;;14.86;64.47;100812.81;5569996;32;34822;-67
2022/09/23 09:27:39;;;;;;;7.45;4.30;;;;;;;14.92;65.02;100821.91;5570126;32;34017;-68
2022/09/23 09:30:43;;;;;;;6.57;4.37;;;;;;;14.77;66.52;100811.22;5569971;32;33972;-70
2022/09/23 09:33:58;;;;;;;5.65;3.97;;;;;;;14.41;66.97;100808.47;5569845;32;34594;-69
2022/09/23 09:37:15;;;;;;;5.78;3.97;;;;;;;14.34;68.62;100813.66;5570038;32;35232;-69
2022/09/23 09:40:20;;;;;;;4.78;3.65;;;;;;;14.80;66.84;100805.53;5555694;32;32433;-68
2022/09/23 09:43:23;;;;;;;5.37;3.80;;;;;;;15.16;63.16;100805.56;5555830;32;34061;-68
2022/09/23 09:46:49;;;;;;;6.93;3.42;;;;;;;15.21;63.08;100798.66;5556193;32;33525;-67
2022/09/23 09:50:04;;;;;;;4.90;3.67;;;;;;;15.40;64.73;100804.41;5556327;32;33628;-70
2022/09/23 09:53:27;;;;;;;5.90;3.60;;;;;;;15.19;62.18;100799.87;5543511;32;33932;-68
2022/09/23 09:56:35;;;;;;;4.37;3.65;;;;;;;15.52;60.25;100795.75;5556292;32;34329;-68
2022/09/23 09:59:42;;;;;;;6.53;3.40;;;;;;;15.61;60.46;100788.44;5543947;32;34364;-69
2022/09/23 10:03:13;;;;;;;6.60;3.15;;;;;;;15.88;60.48;100784.97;5555743;32;34557;-68
2022/09/23 10:06:23;;;;;;;7.70;4.07;;;;;;;16.16;59.36;100781.53;5569851;32;33896;-69
2022/09/23 10:09:33;;;;;;;6.05;3.95;;;;;;;16.21;59.39;100777.25;5569640;32;34545;-69
2022/09/23 10:12:42;;;;;;;;;;;;;;;16.46;57.68;100778.41;5570297;32;33901;-69
2022/09/23 10:15:46;;;;;;;;;;;;;;;16.46;57.11;100780.28;5569589;32;34892;-69
2022/09/23 10:18:54;;;;;;;6.12;4.15;;;;;;;16.67;56.47;100776.72;5569931;32;34200;-69
2022/09/23 10:22:08;;;;;;;5.10;3.65;;;;;;;16.47;56.34;100774.72;5555873;32;32351;-69
2022/09/23 10:25:25;;;;;;;4.80;3.70;;;;;;;16.47;58.29;100772.03;5555364;32;32656;-68
2022/09/23 10:28:42;;;;;;;4.72;3.70;;;;;;;16.24;59.10;100779.53;5569069;31;34446;-67
2022/09/23 10:31:45;;;;;;;5.22;3.72;;;;;;;16.63;58.58;100778.16;5555885;32;33878;-69
2022/09/23 10:34:52;;;;;;;6.97;3.78;;;;;;;16.69;55.96;100772.84;5569168;32;34030;-68
2022/09/23 10:38:01;;;;;;;5.53;3.70;;;;;;;16.74;56.15;100775.75;5569011;32;33909;-69
2022/09/23 10:49:08;;;;;;;9.02;4.10;;;;;;;17.10;56.34;100770.13;5569111;32;33858;-68
2022/09/23 10:52:21;;;;;;;6.93;3.90;;;;;;;16.81;56.05;100759.69;5553906;32;35246;-68
2022/09/23 10:55:39;;;;;;;6.60;3.58;;;;;;;19.26;48.52;100764.88;5542325;32;32750;-69
2022/09/23 10:59:11;;;;;;;5.78;3.20;;;;;;;24.06;37.64;100761.22;5569117;32;34647;-69
2022/09/23 11:02:22;;;;;;;5.03;3.08;;;;;;;28.98;28.56;100763.19;5540754;32;33971;-69
2022/09/23 11:05:35;;;;;;;5.43;2.90;;;;;;;27.39;30.22;100757.31;5568808;32;34063;-69
2022/09/23 11:09:01;;;;;;;5.03;3.03;;;;;;;26.12;32.50;100761.28;5568800;32;34178;-69
2022/09/23 11:12:13;;;;;;;3.33;2.60;;;;;;;26.10;31.83;100755.28;5555122;32;32867;-69
2022/09/23 11:15:48;;;;;;;5.80;3.22;;;;;;;24.74;33.93;100751.12;5568797;32;33857;-69
2022/09/23 11:19:25;;;;;;;3.92;3.10;;;;;;;22.87;37.65;100751.44;5569266;32;34338;-69
2022/09/23 11:22:52;;;;;;;6.20;3.28;;;;;;;21.21;39.18;100741.75;5568763;32;33887;-69
2022/09/23 11:26:17;;;;;;;3.97;3.28;;;;;;;21.36;39.71;100741.34;5568801;32;34010;-69
2022/09/23 11:29:21;;;;;;;4.65;3.20;;;;;;;22.87;38.40;100733.34;5557210;32;32677;-70
2022/09/23 11:32:30;;;;;;;4.15;2.72;;;;;;;25.39;33.50;100726.66;5557318;32;33287;-69
2022/09/23 11:35:40;;;;;;;3.50;2.75;;;;;;;25.81;32.33;100726.78;5570595;32;34217;-71
2022/09/23 11:38:47;;;;;;;4.78;2.87;;;;;;;28.49;27.69;100722.94;5571174;32;34004;-71
2022/09/23 11:41:58;;;;;;;4.93;2.72;;;;;;;29.69;26.06;100724.47;5570988;32;34649;-70
2022/09/23 11:45:11;;;;;;;7.35;2.80;;;;;;;31.24;23.03;100719.50;5556846;32;32614;-69
2022/09/23 11:48:22;;;;;;;5.10;2.60;;;;;;;27.03;27.66;100710.09;5570741;32;35248;-71
2022/09/23 11:51:30;;;;;;;4.97;2.05;;;;;;;28.05;26.94;100705.53;5570905;32;34013;-71
2022/09/23 11:54:39;;;;;;;1.95;1.48;;;;;;;29.61;23.40;100711.44;5556920;32;32475;-71
2022/09/23 11:57:46;;;;;;;3.25;1.58;;;;;;;29.16;24.26;100701.59;5570969;32;33704;-70
2022/09/23 12:00:58;;;;;;;2.72;1.80;;;;;;;31.27;21.49;100700.56;5556669;32;32693;-71
2022/09/23 12:04:11;;;;;;;2.35;1.50;;;;;;;28.41;23.75;100700.84;5570791;32;34340;-70
2022/09/23 12:07:27;;;;;;;2.40;1.95;;;;;;;29.37;21.99;100708.63;5570986;32;34281;-71
2022/09/23 12:10:58;;;;;;;3.87;2.30;;;;;;;27.87;25.50;100696.03;5556514;32;32984;-70
2022/09/23 12:14:26;;;;;;;3.83;2.00;;;;;;;31.30;23.51;100696.41;5570500;32;33952;-71
2022/09/23 12:17:36;;;;;;;4.85;1.65;;;;;;;30.08;23.71;100691.59;5570543;32;33944;-72
2022/09/23 12:20:42;;;;;;;3.43;2.27;;;;;;;30.85;20.07;100698.66;5570826;32;34443;-70
2022/09/23 12:24:06;;;;;;;4.07;2.50;;;;;;;26.12;27.23;100678.88;5556670;32;32437;-71
2022/09/23 12:27:23;;;;;;;3.42;2.33;;;;;;;24.51;29.88;100682.47;5556662;32;34050;-71
2022/09/23 12:30:30;;;;;;;3.17;2.40;;;;;;;24.32;30.21;100680.31;5570650;32;34646;-70
2022/09/23 12:33:35;;;;;;;3.12;2.25;;;;;;;27.97;25.99;100667.94;5570147;32;34153;-69
2022/09/23 12:36:43;;;;;;;4.75;2.42;;;;;;;30.09;22.81;100672.16;5556685;32;32863;-68
2022/09/23 12:39:51;;;;;;;3.45;2.20;;;;;;;27.53;25.13;100671.25;5556815;32;33400;-70
2022/09/23 12:42:55;;;;;;;3.67;2.10;;;;;;;26.07;26.47;100660.63;5556432;32;32604;-69
2022/09/23 12:46:19;;;;;;;4.65;2.15;;;;;;;22.88;29.57;100656.53;5570323;32;33984;-69
2022/09/23 12:49:24;;;;;;;3.83;2.10;;;;;;;23.81;29.84;100657.87;5570598;32;34575;-70
2022/09/23 12:52:31;;;;;;;2.53;1.90;;;;;;;28.24;24.15;100654.78;5543596;32;33021;-69
2022/09/23 12:55:35;;;;;;;4.47;1.52;;;;;;;31.40;19.90;100657.84;5570308;32;34129;-70
2022/09/23 12:58:41;;;;;;;3.85;1.65;;;;;;;32.65;18.94;100656.63;5570526;32;34065;-71
2022/09/23 13:01:44;;;;;;;2.80;1.95;;;;;;;33.50;18.22;100649.44;5543640;32;32710;-70
2022/09/23 13:08:30;;;;;;;2.85;1.48;;;;;;;30.75;20.85;100633.03;5570339;32;33939;-69
2022/09/23 13:11:39;;;;;;;2.15;1.75;;;;;;;29.70;21.30;100628.50;5543985;32;34225;-70
2022/09/23 13:14:45;;;;;;;2.03;1.40;;;;;;;29.92;21.38;100630.75;5556295;32;34582;-70
2022/09/23 13:17:47;;;;;;;2.55;1.65;;;;;;;25.93;25.90;100630.37;5570073;32;33907;-70
2022/09/23 13:20:53;;;;;;;4.37;2.03;;;;;;;23.53;29.26;100628.19;5569921;32;34383;-71
2022/09/23 13:24:17;;;;;;;2.50;1.73;;;;;;;21.52;32.86;100629.19;5570023;32;34347;-69
2022/09/23 13:27:29;;;;;;;2.97;2.15;;;;;;;20.16;36.42;100628.94;5543337;32;32575;-69
2022/09/23 13:30:33;;;;;;;2.70;1.85;;;;;;;19.02;38.09;100623.94;5569384;32;33996;-69
2022/09/23 13:33:45;;;;;;;2.78;2.10;;;;;;;18.97;39.99;100621.06;5555904;32;32683;-69
2022/09/23 13:36:48;;;;;;;3.12;2.00;;;;;;;18.23;41.05;100619.72;5569599;32;33876;-69
2022/09/23 13:39:50;;;;;;;3.17;2.30;;;;;;;18.08;39.44;100621.84;5569507;32;35231;-69
2022/09/23 13:43:00;;;;;;;3.17;2.30;;;;;;;17.71;40.07;100611.81;5555652;32;34805;-69
2022/09/23 13:46:09;;;;;;;5.50;2.75;;;;;;;17.84;40.03;100610.94;5555664;32;32899;-69
2022/09/23 13:49:23;;;;;;;10.53;2.40;;;;;;;17.40;43.48;100612.41;5555105;32;35116;-69
2022/09/23 13:52:30;;;;;;;4.70;2.70;;;;;;;18.23;43.95;100608.16;5569558;32;35307;-70
2022/09/23 13:55:38;;;;;;;7.90;2.10;;;;;;;21.70;35.63;100615.56;5569433;32;34342;-69
2022/09/23 13:58:43;;;;;;;3.25;1.70;;;;;;;25.55;27.51;100614.38;5530650;32;32447;-69
2022/09/23 14:02:08;;;;;;;4.12;2.40;;;;;;;29.78;21.67;100610.63;5569504;32;33955;-71
2022/09/23 14:05:23;;;;;;;5.18;2.20;;;;;;;25.67;26.94;100617.69;5569353;32;34623;-70
2022/09/23 14:08:27;;;;;;;5.10;2.80;;;;;;;22.53;32.76;100604.41;5555251;32;32568;-69
2022/09/23 14:11:33;;;;;;;3.37;2.30;;;;;;;20.66;37.70;100606.19;5569267;32;34450;-69
2022/09/23 14:14:39;;;;;;;5.75;2.70;;;;;;;19.39;39.34;100606.87;5569161;32;34832;-70
2022/09/23 14:17:47;;;;;;;3.35;2.08;;;;;;;18.54;41.54;100594.03;5569036;32;34219;-69
2022/09/23 14:20:50;;;;;;;14.73;2.50;;;;;;;18.24;45.50;100591.84;5569311;32;33872;-70
2022/09/23 14:23:54;;;;;;;7.30;2.55;;;;;;;17.76;47.88;100583.31;5554591;32;34124;-70
2022/09/23 14:27:10;;;;;;;5.47;2.35;;;;;;;17.13;49.19;100581.25;5568843;32;35133;-69
2022/09/23 14:30:17;;;;;;;6.80;2.47;;;;;;;17.13;48.33;100578.56;5568977;32;34644;-69
2022/09/23 14:33:38;;;;;;;2.92;2.12;;;;;;;16.81;49.63;100577.50;5555128;32;33965;-69
2022/09/23 14:40:09;;;;;;;4.62;2.40;;;;;;;17.08;47.32;100575.69;5555528;32;32482;-69
2022/09/23 14:43:22;;;;;;;3.70;2.53;;;;;;;17.05;46.53;100576.06;5542506;32;34479;-69
2022/09/23 14:46:30;;;;;;;7.57;2.47;;;;;;;16.84;47.18;100569.06;5569076;32;34201;-68
2022/09/23 14:49:33;;;;;;;3.75;2.35;;;;;;;16.85;48.65;100573.38;5568941;32;34676;-68
2022/09/23 14:52:35;;;;;;;4.72;2.40;;;;;;;17.01;47.44;100569.47;5554569;32;34436;-68